sensor_id;sensor_type;location;lat;lon;timestamp;pressure;altitude;pressure_sealevel;temperature;humidity
29215;BME280;16252;49.816;7.964;2023-04-03T00:00:50;101067.75;;;8.51;54.90
29215;BME280;16252;49.816;7.964;2023-04-03T00:03:16;101038.22;;;8.36;54.85
29215;BME280;16252;49.816;7.964;2023-04-03T00:05:42;101022.78;;;8.25;54.95
29215;BME280;16252;49.816;7.964;2023-04-03T00:08:07;101060.06;;;8.44;55.19
29215;BME280;16252;49.816;7.964;2023-04-03T00:10:34;101063.19;;;8.53;55.14
29215;BME280;16252;49.816;7.964;2023-04-03T00:13:00;101060.00;;;8.46;55.03
29215;BME280;16252;49.816;7.964;2023-04-03T00:15:25;101057.31;;;8.46;55.21
29215;BME280;16252;49.816;7.964;2023-04-03T00:17:50;101029.81;;;8.27;55.10
29215;BME280;16252;49.816;7.964;2023-04-03T00:20:16;101061.00;;;8.43;55.25
29215;BME280;16252;49.816;7.964;2023-04-03T00:22:41;101030.22;;;8.19;55.11
29215;BME280;16252;49.816;7.964;2023-04-03T00:25:07;101051.94;;;8.29;55.18
29215;BME280;16252;49.816;7.964;2023-04-03T00:27:32;101072.69;;;8.41;55.41
29215;BME280;16252;49.816;7.964;2023-04-03T00:29:58;101063.16;;;8.35;54.97
29215;BME280;16252;49.816;7.964;2023-04-03T00:32:23;101064.09;;;8.34;55.11
29215;BME280;16252;49.816;7.964;2023-04-03T00:34:48;101070.97;;;8.40;55.40
29215;BME280;16252;49.816;7.964;2023-04-03T00:37:13;101058.94;;;8.31;55.02
29215;BME280;16252;49.816;7.964;2023-04-03T00:39:39;101049.44;;;8.25;55.31
29215;BME280;16252;49.816;7.964;2023-04-03T00:42:04;101071.03;;;8.38;55.34
29215;BME280;16252;49.816;7.964;2023-04-03T00:46:58;101053.66;;;8.30;55.34
29215;BME280;16252;49.816;7.964;2023-04-03T00:49:23;101036.09;;;8.25;55.17
29215;BME280;16252;49.816;7.964;2023-04-03T00:51:49;101050.94;;;8.31;55.59
29215;BME280;16252;49.816;7.964;2023-04-03T00:54:15;101050.13;;;8.29;55.41
29215;BME280;16252;49.816;7.964;2023-04-03T00:56:40;101066.53;;;8.39;55.47
29215;BME280;16252;49.816;7.964;2023-04-03T00:59:10;101037.75;;;8.28;55.24
29215;BME280;16252;49.816;7.964;2023-04-03T01:01:37;101055.88;;;8.39;55.40
29215;BME280;16252;49.816;7.964;2023-04-03T01:04:03;101018.75;;;8.17;55.40
29215;BME280;16252;49.816;7.964;2023-04-03T01:06:35;101048.75;;;8.39;55.26
29215;BME280;16252;49.816;7.964;2023-04-03T01:09:02;101054.13;;;8.38;55.38
29215;BME280;16252;49.816;7.964;2023-04-03T01:11:27;101038.78;;;8.25;55.46
29215;BME280;16252;49.816;7.964;2023-04-03T01:13:53;101069.94;;;8.42;55.35
29215;BME280;16252;49.816;7.964;2023-04-03T01:16:18;101069.09;;;8.42;55.39
29215;BME280;16252;49.816;7.964;2023-04-03T01:18:45;101051.78;;;8.32;55.43
29215;BME280;16252;49.816;7.964;2023-04-03T01:21:30;101062.03;;;8.41;55.38
29215;BME280;16252;49.816;7.964;2023-04-03T01:24:33;101056.53;;;8.44;55.26
29215;BME280;16252;49.816;7.964;2023-04-03T01:27:01;101028.97;;;8.26;55.33
29215;BME280;16252;49.816;7.964;2023-04-03T01:29:28;101030.84;;;8.24;55.51
29215;BME280;16252;49.816;7.964;2023-04-03T01:31:58;101021.75;;;8.28;55.50
29215;BME280;16252;49.816;7.964;2023-04-03T01:34:25;101041.13;;;8.32;55.43
29215;BME280;16252;49.816;7.964;2023-04-03T01:36:51;101051.44;;;8.39;55.26
29215;BME280;16252;49.816;7.964;2023-04-03T01:39:17;101063.75;;;8.42;55.53
29215;BME280;16252;49.816;7.964;2023-04-03T01:41:42;101035.38;;;8.22;55.35
29215;BME280;16252;49.816;7.964;2023-04-03T01:44:08;101054.13;;;8.38;55.50
29215;BME280;16252;49.816;7.964;2023-04-03T01:46:34;101051.63;;;8.35;55.38
29215;BME280;16252;49.816;7.964;2023-04-03T01:49:00;101072.75;;;8.39;55.34
29215;BME280;16252;49.816;7.964;2023-04-03T01:51:25;101055.25;;;8.34;55.58
29215;BME280;16252;49.816;7.964;2023-04-03T01:53:51;101053.38;;;8.36;55.35
29215;BME280;16252;49.816;7.964;2023-04-03T01:56:16;101056.09;;;8.34;55.33
29215;BME280;16252;49.816;7.964;2023-04-03T01:58:42;101014.28;;;8.17;55.20
29215;BME280;16252;49.816;7.964;2023-04-03T02:01:07;101060.41;;;8.37;55.28
29215;BME280;16252;49.816;7.964;2023-04-03T02:03:32;101028.56;;;8.16;55.23
29215;BME280;16252;49.816;7.964;2023-04-03T02:05:58;101043.22;;;8.25;55.39
29215;BME280;16252;49.816;7.964;2023-04-03T02:08:24;101011.28;;;8.06;55.29
29215;BME280;16252;49.816;7.964;2023-04-03T02:10:50;101062.22;;;8.36;55.26
29215;BME280;16252;49.816;7.964;2023-04-03T02:13:16;101045.88;;;8.25;55.13
29215;BME280;16252;49.816;7.964;2023-04-03T02:15:42;101049.13;;;8.32;55.31
29215;BME280;16252;49.816;7.964;2023-04-03T02:18:08;101032.06;;;8.17;55.05
29215;BME280;16252;49.816;7.964;2023-04-03T02:20:34;101039.84;;;8.21;55.25
29215;BME280;16252;49.816;7.964;2023-04-03T02:22:59;101045.81;;;8.27;55.15
29215;BME280;16252;49.816;7.964;2023-04-03T02:25:25;101043.38;;;8.22;55.04
29215;BME280;16252;49.816;7.964;2023-04-03T02:27:51;101040.94;;;8.17;55.29
29215;BME280;16252;49.816;7.964;2023-04-03T02:30:16;101030.59;;;8.11;54.77
29215;BME280;16252;49.816;7.964;2023-04-03T02:32:42;101049.56;;;8.22;54.92
29215;BME280;16252;49.816;7.964;2023-04-03T02:35:08;101047.06;;;8.19;54.94
29215;BME280;16252;49.816;7.964;2023-04-03T02:37:34;101024.91;;;8.00;55.21
29215;BME280;16252;49.816;7.964;2023-04-03T02:40:00;101035.34;;;8.04;55.07
29215;BME280;16252;49.816;7.964;2023-04-03T02:42:25;101038.88;;;8.05;55.11
29215;BME280;16252;49.816;7.964;2023-04-03T02:44:50;101052.94;;;8.09;55.19
29215;BME280;16252;49.816;7.964;2023-04-03T02:47:16;101034.06;;;7.94;54.94
29215;BME280;16252;49.816;7.964;2023-04-03T02:49:41;101043.56;;;8.00;55.15
29215;BME280;16252;49.816;7.964;2023-04-03T02:52:08;101045.38;;;7.99;55.14
29215;BME280;16252;49.816;7.964;2023-04-03T02:54:34;101029.97;;;7.87;55.28
29215;BME280;16252;49.816;7.964;2023-04-03T02:56:59;101039.56;;;7.91;55.32
29215;BME280;16252;49.816;7.964;2023-04-03T02:59:25;101029.28;;;7.84;55.03
29215;BME280;16252;49.816;7.964;2023-04-03T03:01:50;101052.56;;;7.97;55.57
29215;BME280;16252;49.816;7.964;2023-04-03T03:04:15;101043.19;;;7.90;55.29
29215;BME280;16252;49.816;7.964;2023-04-03T03:06:41;101039.94;;;7.84;55.37
29215;BME280;16252;49.816;7.964;2023-04-03T03:09:06;101041.66;;;7.85;55.39
29215;BME280;16252;49.816;7.964;2023-04-03T03:11:31;101037.28;;;7.84;55.59
29215;BME280;16252;49.816;7.964;2023-04-03T03:13:57;101045.19;;;7.85;55.52
29215;BME280;16252;49.816;7.964;2023-04-03T03:16:22;101061.09;;;7.87;55.69
29215;BME280;16252;49.816;7.964;2023-04-03T03:18:48;101050.25;;;7.72;55.51
29215;BME280;16252;49.816;7.964;2023-04-03T03:21:13;101037.06;;;7.69;55.78
29215;BME280;16252;49.816;7.964;2023-04-03T03:23:40;101065.56;;;7.86;55.74
29215;BME280;16252;49.816;7.964;2023-04-03T03:26:08;101062.91;;;7.86;55.65
29215;BME280;16252;49.816;7.964;2023-04-03T03:28:35;101067.53;;;7.82;56.02
29215;BME280;16252;49.816;7.964;2023-04-03T03:31:01;101059.00;;;7.74;55.82
29215;BME280;16252;49.816;7.964;2023-04-03T03:33:27;101043.50;;;7.65;56.06
29215;BME280;16252;49.816;7.964;2023-04-03T03:35:53;101054.69;;;7.72;55.97
29215;BME280;16252;49.816;7.964;2023-04-03T03:38:19;101066.00;;;7.77;56.12
29215;BME280;16252;49.816;7.964;2023-04-03T03:40:46;101067.53;;;7.82;55.81
29215;BME280;16252;49.816;7.964;2023-04-03T03:43:12;101059.00;;;7.74;55.92
29215;BME280;16252;49.816;7.964;2023-04-03T03:45:37;101046.84;;;7.69;55.84
29215;BME280;16252;49.816;7.964;2023-04-03T03:48:02;101047.97;;;7.65;56.08
29215;BME280;16252;49.816;7.964;2023-04-03T03:50:28;101034.06;;;7.58;55.84
29215;BME280;16252;49.816;7.964;2023-04-03T03:52:53;101054.16;;;7.65;55.83
29215;BME280;16252;49.816;7.964;2023-04-03T03:55:18;101042.84;;;7.60;55.86
29215;BME280;16252;49.816;7.964;2023-04-03T03:57:44;101028.34;;;7.47;55.89
29215;BME280;16252;49.816;7.964;2023-04-03T04:00:09;101044.84;;;7.55;55.95
29215;BME280;16252;49.816;7.964;2023-04-03T04:02:35;101071.03;;;7.64;55.83
29215;BME280;16252;49.816;7.964;2023-04-03T04:05:00;101056.38;;;7.55;55.78
29215;BME280;16252;49.816;7.964;2023-04-03T04:07:26;101032.31;;;7.38;55.96
29215;BME280;16252;49.816;7.964;2023-04-03T04:09:53;101020.16;;;7.32;55.82
29215;BME280;16252;49.816;7.964;2023-04-03T04:12:18;101027.22;;;7.33;55.95
29215;BME280;16252;49.816;7.964;2023-04-03T04:14:43;101051.56;;;7.45;55.99
29215;BME280;16252;49.816;7.964;2023-04-03T04:17:11;101032.75;;;7.29;55.92
29215;BME280;16252;49.816;7.964;2023-04-03T04:19:36;101053.41;;;7.43;56.07
29215;BME280;16252;49.816;7.964;2023-04-03T04:22:02;101050.97;;;7.38;56.09
29215;BME280;16252;49.816;7.964;2023-04-03T04:24:27;101058.91;;;7.40;56.12
29215;BME280;16252;49.816;7.964;2023-04-03T04:26:52;101053.03;;;7.31;56.12
29215;BME280;16252;49.816;7.964;2023-04-03T04:29:17;101055.69;;;7.31;56.09
29215;BME280;16252;49.816;7.964;2023-04-03T04:31:43;101023.91;;;7.09;56.28
29215;BME280;16252;49.816;7.964;2023-04-03T04:34:08;101052.53;;;7.23;56.17
29215;BME280;16252;49.816;7.964;2023-04-03T04:36:33;101019.78;;;7.02;56.00
29215;BME280;16252;49.816;7.964;2023-04-03T04:38:59;101068.50;;;7.23;56.22
29215;BME280;16252;49.816;7.964;2023-04-03T04:41:24;101038.41;;;7.02;56.26
29215;BME280;16252;49.816;7.964;2023-04-03T04:43:51;101074.97;;;7.18;56.31
29215;BME280;16252;49.816;7.964;2023-04-03T04:46:17;101070.78;;;7.12;56.40
29215;BME280;16252;49.816;7.964;2023-04-03T04:48:42;101053.63;;;6.99;56.29
29215;BME280;16252;49.816;7.964;2023-04-03T04:51:08;101053.72;;;6.97;56.41
29215;BME280;16252;49.816;7.964;2023-04-03T04:53:33;101053.97;;;6.91;56.39
29215;BME280;16252;49.816;7.964;2023-04-03T04:55:58;101061.91;;;6.92;56.57
29215;BME280;16252;49.816;7.964;2023-04-03T04:58:24;101039.69;;;6.73;56.51
29215;BME280;16252;49.816;7.964;2023-04-03T05:00:49;101057.91;;;6.82;56.40
29215;BME280;16252;49.816;7.964;2023-04-03T05:03:14;101067.69;;;6.82;56.46
29215;BME280;16252;49.816;7.964;2023-04-03T05:05:40;101064.44;;;6.75;56.46
29215;BME280;16252;49.816;7.964;2023-04-03T05:08:05;101070.69;;;6.74;56.35
29215;BME280;16252;49.816;7.964;2023-04-03T05:10:31;101070.94;;;6.68;56.44
29215;BME280;16252;49.816;7.964;2023-04-03T05:12:56;101063.28;;;6.60;56.23
29215;BME280;16252;49.816;7.964;2023-04-03T05:15:22;101084.38;;;6.65;56.22
29215;BME280;16252;49.816;7.964;2023-04-03T05:17:47;101079.25;;;6.60;56.35
29215;BME280;16252;49.816;7.964;2023-04-03T05:20:13;101076.66;;;6.59;56.15
29215;BME280;16252;49.816;7.964;2023-04-03T05:22:38;101082.22;;;6.53;56.07
29215;BME280;16252;49.816;7.964;2023-04-03T05:25:04;101063.22;;;6.41;56.16
29215;BME280;16252;49.816;7.964;2023-04-03T05:27:30;101087.69;;;6.49;56.10
29215;BME280;16252;49.816;7.964;2023-04-03T05:29:55;101081.66;;;6.46;55.98
29215;BME280;16252;49.816;7.964;2023-04-03T05:32:21;101075.56;;;6.42;56.03
29215;BME280;16252;49.816;7.964;2023-04-03T05:34:47;101064.44;;;6.33;55.91
29215;BME280;16252;49.816;7.964;2023-04-03T05:37:12;101059.13;;;6.33;55.89
29215;BME280;16252;49.816;7.964;2023-04-03T05:39:40;101084.34;;;6.44;55.81
29215;BME280;16252;49.816;7.964;2023-04-03T05:42:07;101074.00;;;6.38;55.90
29215;BME280;16252;49.816;7.964;2023-04-03T05:44:33;101113.91;;;6.59;55.96
29215;BME280;16252;49.816;7.964;2023-04-03T05:46:59;101116.47;;;6.60;56.10
29215;BME280;16252;49.816;7.964;2023-04-03T05:49:24;101104.34;;;6.53;56.00
29215;BME280;16252;49.816;7.964;2023-04-03T05:51:50;101105.13;;;6.57;56.01
29215;BME280;16252;49.816;7.964;2023-04-03T05:54:27;101086.88;;;6.47;55.77
29215;BME280;16252;49.816;7.964;2023-04-03T05:56:53;101108.78;;;6.54;55.93
29215;BME280;16252;49.816;7.964;2023-04-03T05:59:19;101127.69;;;6.68;55.88
29215;BME280;16252;49.816;7.964;2023-04-03T06:01:45;101127.59;;;6.70;56.04
29215;BME280;16252;49.816;7.964;2023-04-03T06:04:10;101092.88;;;6.53;55.98
29215;BME280;16252;49.816;7.964;2023-04-03T06:09:12;101119.56;;;6.71;55.77
29215;BME280;16252;49.816;7.964;2023-04-03T06:11:37;101112.31;;;6.75;55.56
29215;BME280;16252;49.816;7.964;2023-04-03T06:14:03;101105.47;;;6.69;55.65
29215;BME280;16252;49.816;7.964;2023-04-03T06:16:28;101105.41;;;6.71;55.54
29215;BME280;16252;49.816;7.964;2023-04-03T06:18:54;101111.97;;;6.83;55.66
29215;BME280;16252;49.816;7.964;2023-04-03T06:21:20;101119.09;;;6.82;55.65
29215;BME280;16252;49.816;7.964;2023-04-03T06:23:45;101105.94;;;6.79;55.58
29215;BME280;16252;49.816;7.964;2023-04-03T06:26:11;101119.81;;;6.86;55.24
29215;BME280;16252;49.816;7.964;2023-04-03T06:28:36;101124.38;;;6.84;55.34
29215;BME280;16252;49.816;7.964;2023-04-03T06:31:01;101098.44;;;6.68;55.08
29215;BME280;16252;49.816;7.964;2023-04-03T06:33:26;101111.41;;;6.76;55.34
29215;BME280;16252;49.816;7.964;2023-04-03T06:35:58;101143.44;;;6.93;54.96
29215;BME280;16252;49.816;7.964;2023-04-03T06:38:23;101111.72;;;6.68;55.23
29215;BME280;16252;49.816;7.964;2023-04-03T06:40:54;101117.25;;;6.84;55.01
29215;BME280;16252;49.816;7.964;2023-04-03T06:43:21;101144.09;;;6.99;55.44
29215;BME280;16252;49.816;7.964;2023-04-03T06:45:46;101106.00;;;6.78;55.22
29215;BME280;16252;49.816;7.964;2023-04-03T06:48:12;101120.16;;;6.78;55.01
29215;BME280;16252;49.816;7.964;2023-04-03T06:50:37;101133.13;;;6.86;54.99
29215;BME280;16252;49.816;7.964;2023-04-03T06:53:06;101133.00;;;6.89;54.98
29215;BME280;16252;49.816;7.964;2023-04-03T06:55:32;101131.34;;;6.86;55.07
29215;BME280;16252;49.816;7.964;2023-04-03T06:57:58;101126.34;;;6.79;55.25
29215;BME280;16252;49.816;7.964;2023-04-03T07:00:24;101118.44;;;6.77;54.98
29215;BME280;16252;49.816;7.964;2023-04-03T07:02:50;101128.69;;;6.86;54.87
29215;BME280;16252;49.816;7.964;2023-04-03T07:05:15;101142.56;;;6.93;55.17
29215;BME280;16252;49.816;7.964;2023-04-03T07:07:40;101144.50;;;6.89;55.09
29215;BME280;16252;49.816;7.964;2023-04-03T07:10:07;101177.31;;;7.10;55.08
29215;BME280;16252;49.816;7.964;2023-04-03T07:12:33;101149.31;;;7.02;54.86
29215;BME280;16252;49.816;7.964;2023-04-03T07:14:58;101168.28;;;7.14;54.75
29215;BME280;16252;49.816;7.964;2023-04-03T07:17:24;101174.19;;;7.21;54.93
29215;BME280;16252;49.816;7.964;2023-04-03T07:19:50;101176.72;;;7.24;55.14
29215;BME280;16252;49.816;7.964;2023-04-03T07:22:15;101159.97;;;7.22;55.10
29215;BME280;16252;49.816;7.964;2023-04-03T07:24:41;101125.03;;;7.09;54.95
29215;BME280;16252;49.816;7.964;2023-04-03T07:27:06;101185.47;;;7.47;54.72
29215;BME280;16252;49.816;7.964;2023-04-03T07:29:33;101159.19;;;7.39;54.40
29215;BME280;16252;49.816;7.964;2023-04-03T07:32:02;101189.25;;;7.62;54.58
29215;BME280;16252;49.816;7.964;2023-04-03T07:34:28;101174.63;;;7.51;54.43
29215;BME280;16252;49.816;7.964;2023-04-03T07:36:53;101188.41;;;7.61;54.32
29215;BME280;16252;49.816;7.964;2023-04-03T07:39:19;101183.88;;;7.63;54.42
29215;BME280;16252;49.816;7.964;2023-04-03T07:41:45;101184.59;;;7.67;54.06
29215;BME280;16252;49.816;7.964;2023-04-03T07:44:10;101191.47;;;7.72;54.02
29215;BME280;16252;49.816;7.964;2023-04-03T07:46:37;101173.88;;;7.68;53.86
29215;BME280;16252;49.816;7.964;2023-04-03T07:49:03;101172.91;;;7.69;53.89
29215;BME280;16252;49.816;7.964;2023-04-03T07:51:28;101199.81;;;7.84;54.06
29215;BME280;16252;49.816;7.964;2023-04-03T07:53:55;101183.31;;;7.75;54.18
29215;BME280;16252;49.816;7.964;2023-04-03T07:56:20;101189.66;;;7.92;54.22
29215;BME280;16252;49.816;7.964;2023-04-03T07:58:45;101153.16;;;7.75;53.92
29215;BME280;16252;49.816;7.964;2023-04-03T08:01:11;101175.16;;;7.97;53.83
29215;BME280;16252;49.816;7.964;2023-04-03T08:03:36;101182.97;;;8.02;53.44
29215;BME280;16252;49.816;7.964;2023-04-03T08:06:04;101214.88;;;8.22;52.90
29215;BME280;16252;49.816;7.964;2023-04-03T08:08:30;101186.81;;;8.15;53.68
29215;BME280;16252;49.816;7.964;2023-04-03T08:10:58;101191.63;;;8.26;53.18
29215;BME280;16252;49.816;7.964;2023-04-03T08:13:23;101161.28;;;8.10;52.80
29215;BME280;16252;49.816;7.964;2023-04-03T08:15:49;101177.47;;;8.24;53.08
29215;BME280;16252;49.816;7.964;2023-04-03T08:18:15;101199.84;;;8.40;52.61
29215;BME280;16252;49.816;7.964;2023-04-03T08:20:41;101203.94;;;8.48;52.45
29215;BME280;16252;49.816;7.964;2023-04-03T08:23:08;101216.19;;;8.52;52.06
29215;BME280;16252;49.816;7.964;2023-04-03T08:25:37;101212.38;;;8.57;50.41
29215;BME280;16252;49.816;7.964;2023-04-03T08:28:03;101185.75;;;8.37;52.06
29215;BME280;16252;49.816;7.964;2023-04-03T08:30:29;101196.88;;;8.46;51.92
29215;BME280;16252;49.816;7.964;2023-04-03T08:32:54;101204.34;;;8.57;51.94
29215;BME280;16252;49.816;7.964;2023-04-03T08:35:20;101179.88;;;8.49;52.32
29215;BME280;16252;49.816;7.964;2023-04-03T08:37:45;101183.97;;;8.56;51.94
29215;BME280;16252;49.816;7.964;2023-04-03T08:40:15;101213.69;;;8.85;51.48
29215;BME280;16252;49.816;7.964;2023-04-03T08:47:58;101221.94;;;8.98;51.12
29215;BME280;16252;49.816;7.964;2023-04-03T08:50:33;101229.63;;;9.04;50.30
29215;BME280;16252;49.816;7.964;2023-04-03T08:53:01;101205.97;;;8.96;51.10
29215;BME280;16252;49.816;7.964;2023-04-03T08:55:34;101218.41;;;9.15;49.45
29215;BME280;16252;49.816;7.964;2023-04-03T09:00:54;101211.09;;;9.18;50.07
29215;BME280;16252;49.816;7.964;2023-04-03T09:03:21;101235.59;;;9.44;49.37
29215;BME280;16252;49.816;7.964;2023-04-03T09:05:51;101197.44;;;9.24;49.40
29215;BME280;16252;49.816;7.964;2023-04-03T09:08:25;101218.94;;;9.39;49.28
29215;BME280;16252;49.816;7.964;2023-04-03T09:11:36;101196.56;;;9.41;50.46
29215;BME280;16252;49.816;7.964;2023-04-03T09:17:06;101224.47;;;9.86;52.18
29215;BME280;16252;49.816;7.964;2023-04-03T09:22:22;101217.44;;;10.80;50.54
29215;BME280;16252;49.816;7.964;2023-04-03T09:25:08;101206.00;;;11.53;53.07
29215;BME280;16252;49.816;7.964;2023-04-03T09:27:35;101198.91;;;12.24;52.68
29215;BME280;16252;49.816;7.964;2023-04-03T09:30:00;101207.22;;;13.15;52.06
29215;BME280;16252;49.816;7.964;2023-04-03T09:32:31;101197.50;;;13.91;50.55
29215;BME280;16252;49.816;7.964;2023-04-03T09:35:02;101194.16;;;14.73;46.12
29215;BME280;16252;49.816;7.964;2023-04-03T09:37:39;101218.72;;;15.64;48.05
29215;BME280;16252;49.816;7.964;2023-04-03T09:40:11;101220.63;;;16.31;46.20
29215;BME280;16252;49.816;7.964;2023-04-03T09:42:56;101154.25;;;16.60;45.63
29215;BME280;16252;49.816;7.964;2023-04-03T09:45:35;101187.06;;;17.41;43.60
29215;BME280;16252;49.816;7.964;2023-04-03T09:48:06;101200.59;;;17.83;42.99
29215;BME280;16252;49.816;7.964;2023-04-03T09:50:33;101173.38;;;17.85;42.55
29215;BME280;16252;49.816;7.964;2023-04-03T09:53:04;101178.34;;;18.20;43.78
29215;BME280;16252;49.816;7.964;2023-04-03T09:55:30;101159.28;;;18.31;42.78
29215;BME280;16252;49.816;7.964;2023-04-03T09:58:04;101211.47;;;18.93;40.63
29215;BME280;16252;49.816;7.964;2023-04-03T10:00:37;101190.78;;;19.02;42.14
29215;BME280;16252;49.816;7.964;2023-04-03T10:03:05;101211.59;;;19.40;40.99
29215;BME280;16252;49.816;7.964;2023-04-03T10:05:39;101215.44;;;19.57;40.64
29215;BME280;16252;49.816;7.964;2023-04-03T10:10:44;101185.38;;;18.92;38.86
29215;BME280;16252;49.816;7.964;2023-04-03T10:13:16;101223.00;;;18.76;38.62
29215;BME280;16252;49.816;7.964;2023-04-03T10:15:46;101203.50;;;18.32;39.27
29215;BME280;16252;49.816;7.964;2023-04-03T10:18:29;101205.38;;;18.01;38.79
29215;BME280;16252;49.816;7.964;2023-04-03T10:21:03;101193.69;;;17.79;36.91
29215;BME280;16252;49.816;7.964;2023-04-03T10:23:42;101195.09;;;17.94;39.48
29215;BME280;16252;49.816;7.964;2023-04-03T10:31:58;101206.75;;;17.43;37.46
29215;BME280;16252;49.816;7.964;2023-04-03T10:34:29;101207.63;;;16.90;38.59
29215;BME280;16252;49.816;7.964;2023-04-03T10:37:21;101197.31;;;16.41;40.59
29215;BME280;16252;49.816;7.964;2023-04-03T10:39:54;101146.38;;;15.57;37.96
29215;BME280;16252;49.816;7.964;2023-04-03T10:48:30;101183.13;;;15.01;40.16
29215;BME280;16252;49.816;7.964;2023-04-03T10:51:00;101204.88;;;15.10;41.60
29215;BME280;16252;49.816;7.964;2023-04-03T10:53:44;101192.41;;;15.21;40.68
29215;BME280;16252;49.816;7.964;2023-04-03T10:56:31;101199.69;;;15.43;35.02
29215;BME280;16252;49.816;7.964;2023-04-03T10:59:07;101156.75;;;15.17;39.28
29215;BME280;16252;49.816;7.964;2023-04-03T11:01:37;101214.13;;;15.30;39.00
29215;BME280;16252;49.816;7.964;2023-04-03T11:04:05;101191.63;;;15.07;39.64
29215;BME280;16252;49.816;7.964;2023-04-03T11:06:42;101188.53;;;15.01;39.29
29215;BME280;16252;49.816;7.964;2023-04-03T11:09:25;101170.59;;;14.88;38.89
29215;BME280;16252;49.816;7.964;2023-04-03T11:11:57;101192.53;;;14.84;40.08
29215;BME280;16252;49.816;7.964;2023-04-03T11:14:36;101151.03;;;14.49;37.55
29215;BME280;16252;49.816;7.964;2023-04-03T11:23:05;101159.84;;;14.27;40.00
29215;BME280;16252;49.816;7.964;2023-04-03T11:25:33;101175.66;;;14.32;40.18
29215;BME280;16252;49.816;7.964;2023-04-03T11:28:19;101169.75;;;14.27;40.02
29215;BME280;16252;49.816;7.964;2023-04-03T11:36:29;101148.59;;;13.60;39.91
29215;BME280;16252;49.816;7.964;2023-04-03T11:38:58;101149.53;;;13.46;40.28
29215;BME280;16252;49.816;7.964;2023-04-03T11:41:30;101151.47;;;13.31;40.19
29215;BME280;16252;49.816;7.964;2023-04-03T11:44:04;101166.97;;;13.28;40.08
29215;BME280;16252;49.816;7.964;2023-04-03T11:46:54;101139.19;;;13.01;39.03
29215;BME280;16252;49.816;7.964;2023-04-03T12:21:17;101130.31;;;12.47;41.11
29215;BME280;16252;49.816;7.964;2023-04-03T12:27:16;101124.22;;;12.57;40.75
29215;BME280;16252;49.816;7.964;2023-04-03T12:37:16;101116.84;;;12.34;41.45
29215;BME280;16252;49.816;7.964;2023-04-03T12:40:04;101124.59;;;12.39;39.94
29215;BME280;16252;49.816;7.964;2023-04-03T12:42:57;101098.78;;;12.23;41.25
29215;BME280;16252;49.816;7.964;2023-04-03T12:45:44;101091.63;;;12.09;40.51
29215;BME280;16252;49.816;7.964;2023-04-03T12:48:17;101115.75;;;12.09;41.33
29215;BME280;16252;49.816;7.964;2023-04-03T12:50:45;101102.63;;;12.05;40.70
29215;BME280;16252;49.816;7.964;2023-04-03T12:53:15;101116.53;;;12.11;40.85
29215;BME280;16252;49.816;7.964;2023-04-03T12:55:42;101102.75;;;12.03;41.34
29215;BME280;16252;49.816;7.964;2023-04-03T12:58:22;101111.72;;;12.17;39.31
29215;BME280;16252;49.816;7.964;2023-04-03T13:01:10;101084.19;;;12.00;40.89
29215;BME280;16252;49.816;7.964;2023-04-03T13:03:39;101099.41;;;12.00;40.62
29215;BME280;16252;49.816;7.964;2023-04-03T13:06:05;101088.66;;;12.00;41.26
29215;BME280;16252;49.816;7.964;2023-04-03T13:08:31;101096.84;;;11.98;41.10
29215;BME280;16252;49.816;7.964;2023-04-03T13:10:58;101119.28;;;12.10;40.79
29215;BME280;16252;49.816;7.964;2023-04-03T13:13:24;101081.50;;;11.86;40.79
29215;BME280;16252;49.816;7.964;2023-04-03T13:15:51;101114.44;;;12.02;40.89
29215;BME280;16252;49.816;7.964;2023-04-03T13:18:39;101085.13;;;11.85;40.47
29215;BME280;16252;49.816;7.964;2023-04-03T13:21:17;101054.34;;;11.63;40.33
29215;BME280;16252;49.816;7.964;2023-04-03T13:23:46;101092.50;;;11.81;40.31
29215;BME280;16252;49.816;7.964;2023-04-03T13:26:15;101098.94;;;11.93;40.30
29215;BME280;16252;49.816;7.964;2023-04-03T13:28:43;101084.97;;;11.88;40.93
29215;BME280;16252;49.816;7.964;2023-04-03T13:33:53;101105.16;;;12.08;39.66
29215;BME280;16252;49.816;7.964;2023-04-03T13:36:22;101104.94;;;12.11;40.42
29215;BME280;16252;49.816;7.964;2023-04-03T13:41:42;101068.38;;;11.96;39.94
29215;BME280;16252;49.816;7.964;2023-04-03T13:44:37;101087.78;;;12.13;39.01
29215;BME280;16252;49.816;7.964;2023-04-03T13:49:45;101063.41;;;11.89;39.64
29215;BME280;16252;49.816;7.964;2023-04-03T13:52:41;101067.91;;;11.89;38.14
29215;BME280;16252;49.816;7.964;2023-04-03T13:55:19;101089.00;;;11.95;38.93
29215;BME280;16252;49.816;7.964;2023-04-03T13:57:54;101059.00;;;11.74;39.38
29215;BME280;16252;49.816;7.964;2023-04-03T14:00:52;101088.50;;;11.88;39.28
29215;BME280;16252;49.816;7.964;2023-04-03T14:05:50;101077.97;;;11.71;39.50
29215;BME280;16252;49.816;7.964;2023-04-03T14:08:17;101064.50;;;11.58;39.57
29215;BME280;16252;49.816;7.964;2023-04-03T14:10:43;101063.16;;;11.51;39.69
29215;BME280;16252;49.816;7.964;2023-04-03T14:13:14;101042.19;;;11.43;39.62
29215;BME280;16252;49.816;7.964;2023-04-03T14:15:40;101035.69;;;11.33;40.01
29215;BME280;16252;49.816;7.964;2023-04-03T14:18:05;101043.75;;;11.33;39.90
29215;BME280;16252;49.816;7.964;2023-04-03T14:20:31;101025.56;;;11.24;39.82
29215;BME280;16252;49.816;7.964;2023-04-03T14:22:57;101063.34;;;11.48;40.06
29215;BME280;16252;49.816;7.964;2023-04-03T14:25:22;101064.41;;;11.45;39.74
29215;BME280;16252;49.816;7.964;2023-04-03T14:27:52;101059.06;;;11.45;39.66
29215;BME280;16252;49.816;7.964;2023-04-03T14:30:30;101063.56;;;11.45;38.41
29215;BME280;16252;49.816;7.964;2023-04-03T14:32:56;101034.06;;;11.16;39.23
29215;BME280;16252;49.816;7.964;2023-04-03T14:35:23;101064.69;;;11.26;39.31
29215;BME280;16252;49.816;7.964;2023-04-03T14:37:51;101062.41;;;11.20;39.75
29215;BME280;16252;49.816;7.964;2023-04-03T14:40:20;101046.59;;;11.16;39.61
29215;BME280;16252;49.816;7.964;2023-04-03T14:42:46;101051.22;;;11.28;39.08